sensor_id;sensor_type;location;lat;lon;timestamp;P1;durP1;ratioP1;P2;durP2;ratioP2
45128;SDS011;35512;56.312;101.728;2022-11-20T00:01:39;0.60;;;0.60;;
45128;SDS011;35512;56.312;101.728;2022-11-20T00:04:09;0.60;;;0.60;;
45128;SDS011;35512;56.312;101.728;2022-11-20T00:06:40;0.60;;;0.60;;
45128;SDS011;35512;56.312;101.728;2022-11-20T00:09:08;0.55;;;0.55;;
45128;SDS011;35512;56.312;101.728;2022-11-20T00:11:38;0.60;;;0.60;;
45128;SDS011;35512;56.312;101.728;2022-11-20T00:14:08;0.60;;;0.60;;
45128;SDS011;35512;56.312;101.728;2022-11-20T00:16:38;0.60;;;0.60;;
45128;SDS011;35512;56.312;101.728;2022-11-20T00:19:07;0.60;;;0.60;;
45128;SDS011;35512;56.312;101.728;2022-11-20T00:21:36;0.60;;;0.60;;
45128;SDS011;35512;56.312;101.728;2022-11-20T00:24:05;0.60;;;0.60;;
45128;SDS011;35512;56.312;101.728;2022-11-20T00:26:34;0.60;;;0.60;;
45128;SDS011;35512;56.312;101.728;2022-11-20T00:29:02;0.60;;;0.60;;
45128;SDS011;35512;56.312;101.728;2022-11-20T00:31:32;0.60;;;0.60;;
45128;SDS011;35512;56.312;101.728;2022-11-20T00:34:01;0.60;;;0.60;;
45128;SDS011;35512;56.312;101.728;2022-11-20T00:36:31;0.60;;;0.60;;
45128;SDS011;35512;56.312;101.728;2022-11-20T00:39:02;0.60;;;0.60;;
45128;SDS011;35512;56.312;101.728;2022-11-20T00:41:31;0.60;;;0.60;;
45128;SDS011;35512;56.312;101.728;2022-11-20T00:44:00;0.60;;;0.60;;
45128;SDS011;35512;56.312;101.728;2022-11-20T00:46:29;0.60;;;0.60;;
45128;SDS011;35512;56.312;101.728;2022-11-20T00:48:58;0.50;;;0.50;;
45128;SDS011;35512;56.312;101.728;2022-11-20T00:51:27;0.50;;;0.50;;
45128;SDS011;35512;56.312;101.728;2022-11-20T00:53:57;0.60;;;0.60;;
45128;SDS011;35512;56.312;101.728;2022-11-20T00:56:28;0.60;;;0.60;;
45128;SDS011;35512;56.312;101.728;2022-11-20T00:58:58;0.60;;;0.60;;
45128;SDS011;35512;56.312;101.728;2022-11-20T01:01:28;0.60;;;0.60;;
45128;SDS011;35512;56.312;101.728;2022-11-20T01:03:58;0.60;;;0.60;;
45128;SDS011;35512;56.312;101.728;2022-11-20T01:06:29;0.60;;;0.60;;
45128;SDS011;35512;56.312;101.728;2022-11-20T01:09:01;0.60;;;0.60;;
45128;SDS011;35512;56.312;101.728;2022-11-20T01:11:34;0.52;;;0.52;;
45128;SDS011;35512;56.312;101.728;2022-11-20T01:14:06;0.60;;;0.60;;
45128;SDS011;35512;56.312;101.728;2022-11-20T01:16:39;0.68;;;0.68;;
45128;SDS011;35512;56.312;101.728;2022-11-20T01:19:11;0.60;;;0.60;;
45128;SDS011;35512;56.312;101.728;2022-11-20T01:21:45;0.60;;;0.60;;
45128;SDS011;35512;56.312;101.728;2022-11-20T01:24:18;0.60;;;0.60;;
45128;SDS011;35512;56.312;101.728;2022-11-20T01:26:49;0.60;;;0.60;;
45128;SDS011;35512;56.312;101.728;2022-11-20T01:29:20;0.60;;;0.60;;
45128;SDS011;35512;56.312;101.728;2022-11-20T01:31:52;0.60;;;0.60;;
45128;SDS011;35512;56.312;101.728;2022-11-20T01:34:22;0.60;;;0.60;;
45128;SDS011;35512;56.312;101.728;2022-11-20T01:36:51;0.60;;;0.60;;
45128;SDS011;35512;56.312;101.728;2022-11-20T01:39:23;0.60;;;0.60;;
45128;SDS011;35512;56.312;101.728;2022-11-20T01:41:54;0.60;;;0.60;;
45128;SDS011;35512;56.312;101.728;2022-11-20T01:47:29;0.60;;;0.60;;
45128;SDS011;35512;56.312;101.728;2022-11-20T01:50:06;0.60;;;0.60;;
45128;SDS011;35512;56.312;101.728;2022-11-20T01:52:49;0.60;;;0.60;;
45128;SDS011;35512;56.312;101.728;2022-11-20T01:55:23;0.60;;;0.60;;
45128;SDS011;35512;56.312;101.728;2022-11-20T01:57:55;0.60;;;0.60;;
45128;SDS011;35512;56.312;101.728;2022-11-20T02:00:25;0.60;;;0.60;;
45128;SDS011;35512;56.312;101.728;2022-11-20T02:02:58;0.60;;;0.60;;
45128;SDS011;35512;56.312;101.728;2022-11-20T02:05:33;0.60;;;0.60;;
45128;SDS011;35512;56.312;101.728;2022-11-20T02:08:10;0.70;;;0.70;;
45128;SDS011;35512;56.312;101.728;2022-11-20T02:10:40;0.68;;;0.68;;
45128;SDS011;35512;56.312;101.728;2022-11-20T02:13:09;0.60;;;0.60;;
45128;SDS011;35512;56.312;101.728;2022-11-20T02:15:56;0.60;;;0.60;;
45128;SDS011;35512;56.312;101.728;2022-11-20T02:18:25;0.60;;;0.60;;
45128;SDS011;35512;56.312;101.728;2022-11-20T02:20:56;0.60;;;0.60;;
45128;SDS011;35512;56.312;101.728;2022-11-20T02:23:39;0.60;;;0.60;;
45128;SDS011;35512;56.312;101.728;2022-11-20T02:27:03;0.52;;;0.52;;
45128;SDS011;35512;56.312;101.728;2022-11-20T02:29:40;0.50;;;0.50;;
45128;SDS011;35512;56.312;101.728;2022-11-20T02:32:19;0.55;;;0.55;;
45128;SDS011;35512;56.312;101.728;2022-11-20T02:34:54;0.60;;;0.60;;
45128;SDS011;35512;56.312;101.728;2022-11-20T02:37:23;0.60;;;0.60;;
45128;SDS011;35512;56.312;101.728;2022-11-20T02:40:00;0.60;;;0.60;;
45128;SDS011;35512;56.312;101.728;2022-11-20T02:42:29;0.60;;;0.60;;
45128;SDS011;35512;56.312;101.728;2022-11-20T02:44:58;0.60;;;0.60;;
45128;SDS011;35512;56.312;101.728;2022-11-20T02:47:27;0.60;;;0.60;;
45128;SDS011;35512;56.312;101.728;2022-11-20T02:49:55;0.57;;;0.57;;
45128;SDS011;35512;56.312;101.728;2022-11-20T02:52:25;0.60;;;0.60;;
45128;SDS011;35512;56.312;101.728;2022-11-20T02:54:54;0.50;;;0.50;;
45128;SDS011;35512;56.312;101.728;2022-11-20T02:57:23;0.60;;;0.60;;
45128;SDS011;35512;56.312;101.728;2022-11-20T02:59:51;0.50;;;0.50;;
45128;SDS011;35512;56.312;101.728;2022-11-20T03:02:21;0.60;;;0.60;;
45128;SDS011;35512;56.312;101.728;2022-11-20T03:04:50;0.60;;;0.60;;
45128;SDS011;35512;56.312;101.728;2022-11-20T03:07:21;0.60;;;0.60;;
45128;SDS011;35512;56.312;101.728;2022-11-20T03:09:50;0.60;;;0.60;;
45128;SDS011;35512;56.312;101.728;2022-11-20T03:12:19;0.60;;;0.60;;
45128;SDS011;35512;56.312;101.728;2022-11-20T03:14:48;0.60;;;0.60;;
45128;SDS011;35512;56.312;101.728;2022-11-20T03:17:20;0.50;;;0.50;;
45128;SDS011;35512;56.312;101.728;2022-11-20T03:19:49;0.60;;;0.60;;
45128;SDS011;35512;56.312;101.728;2022-11-20T03:22:17;0.60;;;0.60;;
45128;SDS011;35512;56.312;101.728;2022-11-20T03:24:46;0.60;;;0.60;;
45128;SDS011;35512;56.312;101.728;2022-11-20T03:27:15;0.60;;;0.60;;
45128;SDS011;35512;56.312;101.728;2022-11-20T03:29:44;0.60;;;0.60;;
45128;SDS011;35512;56.312;101.728;2022-11-20T03:32:13;0.50;;;0.50;;
45128;SDS011;35512;56.312;101.728;2022-11-20T03:34:42;0.60;;;0.60;;
45128;SDS011;35512;56.312;101.728;2022-11-20T03:37:11;0.60;;;0.60;;
45128;SDS011;35512;56.312;101.728;2022-11-20T03:39:39;0.60;;;0.60;;
45128;SDS011;35512;56.312;101.728;2022-11-20T03:42:08;0.60;;;0.60;;
45128;SDS011;35512;56.312;101.728;2022-11-20T03:44:56;0.60;;;0.60;;
45128;SDS011;35512;56.312;101.728;2022-11-20T03:47:24;0.60;;;0.60;;
45128;SDS011;35512;56.312;101.728;2022-11-20T03:49:53;0.60;;;0.60;;
45128;SDS011;35512;56.312;101.728;2022-11-20T03:52:22;0.60;;;0.60;;
45128;SDS011;35512;56.312;101.728;2022-11-20T03:54:51;0.60;;;0.60;;
45128;SDS011;35512;56.312;101.728;2022-11-20T03:57:20;0.60;;;0.60;;
45128;SDS011;35512;56.312;101.728;2022-11-20T03:59:49;0.68;;;0.68;;
45128;SDS011;35512;56.312;101.728;2022-11-20T04:02:18;0.60;;;0.60;;
45128;SDS011;35512;56.312;101.728;2022-11-20T04:04:48;0.60;;;0.60;;
45128;SDS011;35512;56.312;101.728;2022-11-20T04:07:17;0.60;;;0.60;;
45128;SDS011;35512;56.312;101.728;2022-11-20T04:09:46;0.60;;;0.60;;
45128;SDS011;35512;56.312;101.728;2022-11-20T04:12:16;0.60;;;0.60;;
45128;SDS011;35512;56.312;101.728;2022-11-20T04:14:45;0.50;;;0.50;;
45128;SDS011;35512;56.312;101.728;2022-11-20T04:17:13;0.60;;;0.60;;
45128;SDS011;35512;56.312;101.728;2022-11-20T04:19:42;0.60;;;0.60;;
45128;SDS011;35512;56.312;101.728;2022-11-20T04:22:11;0.70;;;0.70;;
45128;SDS011;35512;56.312;101.728;2022-11-20T04:24:40;0.60;;;0.60;;
45128;SDS011;35512;56.312;101.728;2022-11-20T04:27:09;0.70;;;0.70;;
45128;SDS011;35512;56.312;101.728;2022-11-20T04:29:38;0.60;;;0.60;;
45128;SDS011;35512;56.312;101.728;2022-11-20T04:32:07;0.60;;;0.60;;
45128;SDS011;35512;56.312;101.728;2022-11-20T04:34:36;0.60;;;0.60;;
45128;SDS011;35512;56.312;101.728;2022-11-20T04:37:04;0.60;;;0.60;;
45128;SDS011;35512;56.312;101.728;2022-11-20T04:39:33;0.60;;;0.60;;
45128;SDS011;35512;56.312;101.728;2022-11-20T04:42:02;0.63;;;0.63;;
45128;SDS011;35512;56.312;101.728;2022-11-20T04:44:49;0.60;;;0.60;;
45128;SDS011;35512;56.312;101.728;2022-11-20T04:47:18;0.60;;;0.60;;
45128;SDS011;35512;56.312;101.728;2022-11-20T04:49:47;0.60;;;0.60;;
45128;SDS011;35512;56.312;101.728;2022-11-20T04:52:16;0.60;;;0.60;;
45128;SDS011;35512;56.312;101.728;2022-11-20T04:54:44;0.60;;;0.60;;
45128;SDS011;35512;56.312;101.728;2022-11-20T04:57:13;0.60;;;0.60;;
45128;SDS011;35512;56.312;101.728;2022-11-20T04:59:42;0.60;;;0.60;;
45128;SDS011;35512;56.312;101.728;2022-11-20T05:02:12;0.60;;;0.60;;
45128;SDS011;35512;56.312;101.728;2022-11-20T05:04:41;0.60;;;0.60;;
45128;SDS011;35512;56.312;101.728;2022-11-20T05:07:10;0.60;;;0.60;;
45128;SDS011;35512;56.312;101.728;2022-11-20T05:09:39;0.60;;;0.60;;
45128;SDS011;35512;56.312;101.728;2022-11-20T05:12:08;0.65;;;0.65;;
45128;SDS011;35512;56.312;101.728;2022-11-20T05:14:38;0.60;;;0.60;;
45128;SDS011;35512;56.312;101.728;2022-11-20T05:17:09;0.60;;;0.60;;
45128;SDS011;35512;56.312;101.728;2022-11-20T05:19:39;0.60;;;0.60;;
45128;SDS011;35512;56.312;101.728;2022-11-20T05:22:08;0.60;;;0.60;;
45128;SDS011;35512;56.312;101.728;2022-11-20T05:24:37;0.60;;;0.60;;
45128;SDS011;35512;56.312;101.728;2022-11-20T05:27:05;0.70;;;0.70;;
45128;SDS011;35512;56.312;101.728;2022-11-20T05:29:34;0.60;;;0.60;;
45128;SDS011;35512;56.312;101.728;2022-11-20T05:32:03;0.60;;;0.60;;
45128;SDS011;35512;56.312;101.728;2022-11-20T05:34:33;0.70;;;0.70;;
45128;SDS011;35512;56.312;101.728;2022-11-20T05:37:02;0.63;;;0.63;;
45128;SDS011;35512;56.312;101.728;2022-11-20T05:39:31;0.60;;;0.60;;
45128;SDS011;35512;56.312;101.728;2022-11-20T05:42:00;0.60;;;0.60;;
45128;SDS011;35512;56.312;101.728;2022-11-20T05:44:56;0.60;;;0.60;;
45128;SDS011;35512;56.312;101.728;2022-11-20T05:47:33;0.60;;;0.60;;
45128;SDS011;35512;56.312;101.728;2022-11-20T05:50:03;0.60;;;0.60;;
45128;SDS011;35512;56.312;101.728;2022-11-20T05:52:32;0.60;;;0.60;;
45128;SDS011;35512;56.312;101.728;2022-11-20T05:55:01;0.50;;;0.50;;
45128;SDS011;35512;56.312;101.728;2022-11-20T05:57:30;0.52;;;0.52;;
45128;SDS011;35512;56.312;101.728;2022-11-20T05:59:59;0.60;;;0.60;;
45128;SDS011;35512;56.312;101.728;2022-11-20T06:02:34;0.60;;;0.60;;
45128;SDS011;35512;56.312;101.728;2022-11-20T06:05:04;0.60;;;0.60;;
45128;SDS011;35512;56.312;101.728;2022-11-20T06:07:33;0.60;;;0.60;;
45128;SDS011;35512;56.312;101.728;2022-11-20T06:10:02;0.60;;;0.60;;
45128;SDS011;35512;56.312;101.728;2022-11-20T06:12:31;0.52;;;0.52;;
45128;SDS011;35512;56.312;101.728;2022-11-20T06:15:01;0.60;;;0.60;;
45128;SDS011;35512;56.312;101.728;2022-11-20T06:17:30;0.50;;;0.50;;
45128;SDS011;35512;56.312;101.728;2022-11-20T06:19:59;0.50;;;0.50;;
45128;SDS011;35512;56.312;101.728;2022-11-20T06:22:29;0.60;;;0.60;;
45128;SDS011;35512;56.312;101.728;2022-11-20T06:24:58;0.52;;;0.52;;
45128;SDS011;35512;56.312;101.728;2022-11-20T06:27:26;0.50;;;0.50;;
45128;SDS011;35512;56.312;101.728;2022-11-20T06:29:55;0.50;;;0.50;;
45128;SDS011;35512;56.312;101.728;2022-11-20T06:32:24;0.50;;;0.50;;
45128;SDS011;35512;56.312;101.728;2022-11-20T06:34:53;0.60;;;0.60;;
45128;SDS011;35512;56.312;101.728;2022-11-20T06:37:22;0.60;;;0.60;;
45128;SDS011;35512;56.312;101.728;2022-11-20T06:39:50;0.60;;;0.60;;
45128;SDS011;35512;56.312;101.728;2022-11-20T06:42:19;0.60;;;0.60;;
45128;SDS011;35512;56.312;101.728;2022-11-20T06:44:48;0.50;;;0.50;;
45128;SDS011;35512;56.312;101.728;2022-11-20T06:47:17;0.60;;;0.60;;
45128;SDS011;35512;56.312;101.728;2022-11-20T06:49:45;0.50;;;0.50;;
45128;SDS011;35512;56.312;101.728;2022-11-20T06:52:14;0.50;;;0.50;;
45128;SDS011;35512;56.312;101.728;2022-11-20T06:54:43;0.50;;;0.50;;
45128;SDS011;35512;56.312;101.728;2022-11-20T06:57:12;0.60;;;0.60;;
45128;SDS011;35512;56.312;101.728;2022-11-20T06:59:41;0.57;;;0.57;;
45128;SDS011;35512;56.312;101.728;2022-11-20T07:02:10;0.60;;;0.60;;
45128;SDS011;35512;56.312;101.728;2022-11-20T07:04:40;0.50;;;0.50;;
45128;SDS011;35512;56.312;101.728;2022-11-20T07:07:09;0.57;;;0.57;;
45128;SDS011;35512;56.312;101.728;2022-11-20T07:09:38;0.50;;;0.50;;
45128;SDS011;35512;56.312;101.728;2022-11-20T07:12:07;0.60;;;0.60;;
45128;SDS011;35512;56.312;101.728;2022-11-20T07:14:36;0.60;;;0.60;;
45128;SDS011;35512;56.312;101.728;2022-11-20T07:17:05;0.50;;;0.50;;
45128;SDS011;35512;56.312;101.728;2022-11-20T07:19:34;0.50;;;0.50;;
45128;SDS011;35512;56.312;101.728;2022-11-20T07:22:02;0.50;;;0.50;;
45128;SDS011;35512;56.312;101.728;2022-11-20T07:24:31;0.50;;;0.50;;
45128;SDS011;35512;56.312;101.728;2022-11-20T07:27:00;0.50;;;0.50;;
45128;SDS011;35512;56.312;101.728;2022-11-20T07:29:29;0.50;;;0.50;;
45128;SDS011;35512;56.312;101.728;2022-11-20T07:31:58;0.50;;;0.50;;
45128;SDS011;35512;56.312;101.728;2022-11-20T07:34:27;0.50;;;0.50;;
45128;SDS011;35512;56.312;101.728;2022-11-20T07:36:56;0.50;;;0.50;;
45128;SDS011;35512;56.312;101.728;2022-11-20T07:39:25;0.60;;;0.60;;
45128;SDS011;35512;56.312;101.728;2022-11-20T07:41:54;0.50;;;0.50;;
45128;SDS011;35512;56.312;101.728;2022-11-20T07:44:22;0.50;;;0.50;;
45128;SDS011;35512;56.312;101.728;2022-11-20T07:46:51;0.60;;;0.60;;
45128;SDS011;35512;56.312;101.728;2022-11-20T07:49:20;0.60;;;0.60;;
45128;SDS011;35512;56.312;101.728;2022-11-20T07:51:52;0.52;;;0.52;;
45128;SDS011;35512;56.312;101.728;2022-11-20T07:54:31;0.60;;;0.60;;
45128;SDS011;35512;56.312;101.728;2022-11-20T07:57:00;0.50;;;0.50;;
45128;SDS011;35512;56.312;101.728;2022-11-20T07:59:29;0.50;;;0.50;;
45128;SDS011;35512;56.312;101.728;2022-11-20T08:01:58;0.50;;;0.50;;
45128;SDS011;35512;56.312;101.728;2022-11-20T08:04:27;0.50;;;0.50;;
45128;SDS011;35512;56.312;101.728;2022-11-20T08:06:56;0.60;;;0.60;;
45128;SDS011;35512;56.312;101.728;2022-11-20T08:09:25;0.60;;;0.60;;
45128;SDS011;35512;56.312;101.728;2022-11-20T08:11:54;0.60;;;0.60;;
45128;SDS011;35512;56.312;101.728;2022-11-20T08:14:42;0.60;;;0.60;;
45128;SDS011;35512;56.312;101.728;2022-11-20T08:17:10;0.60;;;0.60;;
45128;SDS011;35512;56.312;101.728;2022-11-20T08:19:40;0.60;;;0.60;;
45128;SDS011;35512;56.312;101.728;2022-11-20T08:22:09;0.60;;;0.60;;
45128;SDS011;35512;56.312;101.728;2022-11-20T08:24:37;0.50;;;0.50;;
45128;SDS011;35512;56.312;101.728;2022-11-20T08:27:06;0.60;;;0.60;;
45128;SDS011;35512;56.312;101.728;2022-11-20T08:29:35;0.60;;;0.60;;
45128;SDS011;35512;56.312;101.728;2022-11-20T08:32:04;0.60;;;0.60;;
45128;SDS011;35512;56.312;101.728;2022-11-20T08:34:33;0.50;;;0.50;;
45128;SDS011;35512;56.312;101.728;2022-11-20T08:37:02;0.60;;;0.60;;
45128;SDS011;35512;56.312;101.728;2022-11-20T08:39:31;0.50;;;0.50;;
45128;SDS011;35512;56.312;101.728;2022-11-20T08:42:00;0.60;;;0.60;;
45128;SDS011;35512;56.312;101.728;2022-11-20T08:44:29;0.60;;;0.60;;
45128;SDS011;35512;56.312;101.728;2022-11-20T08:46:57;0.70;;;0.70;;
45128;SDS011;35512;56.312;101.728;2022-11-20T08:49:26;0.60;;;0.60;;
45128;SDS011;35512;56.312;101.728;2022-11-20T08:51:56;0.57;;;0.57;;
45128;SDS011;35512;56.312;101.728;2022-11-20T08:54:26;0.60;;;0.60;;
45128;SDS011;35512;56.312;101.728;2022-11-20T08:56:54;0.60;;;0.60;;
45128;SDS011;35512;56.312;101.728;2022-11-20T08:59:23;0.60;;;0.60;;
45128;SDS011;35512;56.312;101.728;2022-11-20T09:02:12;0.60;;;0.60;;
45128;SDS011;35512;56.312;101.728;2022-11-20T09:04:42;0.60;;;0.60;;
45128;SDS011;35512;56.312;101.728;2022-11-20T09:07:11;0.60;;;0.60;;
45128;SDS011;35512;56.312;101.728;2022-11-20T09:09:40;0.60;;;0.60;;
45128;SDS011;35512;56.312;101.728;2022-11-20T09:12:08;0.70;;;0.70;;
45128;SDS011;35512;56.312;101.728;2022-11-20T09:14:37;0.70;;;0.70;;
45128;SDS011;35512;56.312;101.728;2022-11-20T09:17:06;0.60;;;0.60;;
45128;SDS011;35512;56.312;101.728;2022-11-20T09:19:37;0.65;;;0.65;;
45128;SDS011;35512;56.312;101.728;2022-11-20T09:22:05;0.60;;;0.60;;
45128;SDS011;35512;56.312;101.728;2022-11-20T09:24:34;0.60;;;0.60;;
45128;SDS011;35512;56.312;101.728;2022-11-20T09:27:04;0.63;;;0.63;;
45128;SDS011;35512;56.312;101.728;2022-11-20T09:29:33;0.60;;;0.60;;
45128;SDS011;35512;56.312;101.728;2022-11-20T09:32:02;0.60;;;0.60;;
45128;SDS011;35512;56.312;101.728;2022-11-20T09:34:32;0.60;;;0.60;;
45128;SDS011;35512;56.312;101.728;2022-11-20T09:37:01;0.60;;;0.60;;
45128;SDS011;35512;56.312;101.728;2022-11-20T09:39:34;0.60;;;0.60;;
45128;SDS011;35512;56.312;101.728;2022-11-20T09:42:25;0.60;;;0.60;;
45128;SDS011;35512;56.312;101.728;2022-11-20T09:50:32;0.60;;;0.60;;
45128;SDS011;35512;56.312;101.728;2022-11-20T09:55:59;0.60;;;0.60;;
45128;SDS011;35512;56.312;101.728;2022-11-20T09:58:33;0.60;;;0.60;;
45128;SDS011;35512;56.312;101.728;2022-11-20T10:01:11;0.60;;;0.60;;
45128;SDS011;35512;56.312;101.728;2022-11-20T10:03:52;0.60;;;0.60;;
45128;SDS011;35512;56.312;101.728;2022-11-20T10:06:32;0.60;;;0.60;;
45128;SDS011;35512;56.312;101.728;2022-11-20T10:14:17;0.60;;;0.60;;
45128;SDS011;35512;56.312;101.728;2022-11-20T10:17:02;0.60;;;0.60;;
45128;SDS011;35512;56.312;101.728;2022-11-20T10:30:13;0.60;;;0.60;;
45128;SDS011;35512;56.312;101.728;2022-11-20T10:42:08;0.60;;;0.60;;
45128;SDS011;35512;56.312;101.728;2022-11-20T10:44:49;0.60;;;0.60;;
45128;SDS011;35512;56.312;101.728;2022-11-20T10:47:33;0.60;;;0.60;;
45128;SDS011;35512;56.312;101.728;2022-11-20T10:50:03;0.60;;;0.60;;
45128;SDS011;35512;56.312;101.728;2022-11-20T10:55:43;0.70;;;0.70;;
45128;SDS011;35512;56.312;101.728;2022-11-20T10:58:30;0.60;;;0.60;;
45128;SDS011;35512;56.312;101.728;2022-11-20T11:01:16;0.60;;;0.60;;
45128;SDS011;35512;56.312;101.728;2022-11-20T11:03:50;0.60;;;0.60;;
45128;SDS011;35512;56.312;101.728;2022-11-20T11:06:40;0.63;;;0.63;;
45128;SDS011;35512;56.312;101.728;2022-11-20T11:09:16;0.60;;;0.60;;
45128;SDS011;35512;56.312;101.728;2022-11-20T11:11:50;0.60;;;0.60;;
45128;SDS011;35512;56.312;101.728;2022-11-20T11:14:19;0.70;;;0.70;;
45128;SDS011;35512;56.312;101.728;2022-11-20T11:16:49;0.60;;;0.60;;
45128;SDS011;35512;56.312;101.728;2022-11-20T11:19:23;0.63;;;0.63;;
45128;SDS011;35512;56.312;101.728;2022-11-20T11:21:56;0.60;;;0.60;;
45128;SDS011;35512;56.312;101.728;2022-11-20T11:24:26;0.52;;;0.52;;
45128;SDS011;35512;56.312;101.728;2022-11-20T11:29:44;0.60;;;0.60;;
45128;SDS011;35512;56.312;101.728;2022-11-20T11:32:18;0.70;;;0.70;;
45128;SDS011;35512;56.312;101.728;2022-11-20T11:37:34;0.60;;;0.60;;
45128;SDS011;35512;56.312;101.728;2022-11-20T11:40:05;0.60;;;0.60;;
45128;SDS011;35512;56.312;101.728;2022-11-20T11:42:56;0.65;;;0.65;;
45128;SDS011;35512;56.312;101.728;2022-11-20T11:45:28;0.70;;;0.70;;
45128;SDS011;35512;56.312;101.728;2022-11-20T11:47:57;0.70;;;0.70;;
45128;SDS011;35512;56.312;101.728;2022-11-20T11:50:29;0.60;;;0.60;;
45128;SDS011;35512;56.312;101.728;2022-11-20T11:55:47;0.68;;;0.68;;
45128;SDS011;35512;56.312;101.728;2022-11-20T11:58:46;0.70;;;0.70;;
45128;SDS011;35512;56.312;101.728;2022-11-20T12:06:58;0.60;;;0.60;;
45128;SDS011;35512;56.312;101.728;2022-11-20T12:09:55;0.60;;;0.60;;
45128;SDS011;35512;56.312;101.728;2022-11-20T12:12:36;0.60;;;0.60;;
45128;SDS011;35512;56.312;101.728;2022-11-20T12:15:11;0.60;;;0.60;;
45128;SDS011;35512;56.312;101.728;2022-11-20T12:17:45;0.70;;;0.70;;
45128;SDS011;35512;56.312;101.728;2022-11-20T12:20:15;0.60;;;0.60;;
45128;SDS011;35512;56.312;101.728;2022-11-20T12:22:48;0.60;;;0.60;;
45128;SDS011;35512;56.312;101.728;2022-11-20T12:25:48;0.60;;;0.60;;
45128;SDS011;35512;56.312;101.728;2022-11-20T12:28:28;0.70;;;0.70;;
45128;SDS011;35512;56.312;101.728;2022-11-20T12:37:02;0.70;;;0.70;;
45128;SDS011;35512;56.312;101.728;2022-11-20T12:39:43;0.60;;;0.60;;
45128;SDS011;35512;56.312;101.728;2022-11-20T12:42:25;0.70;;;0.70;;
45128;SDS011;35512;56.312;101.728;2022-11-20T13:08:22;0.70;;;0.70;;
45128;SDS011;35512;56.312;101.728;2022-11-20T13:16:50;0.70;;;0.70;;
45128;SDS011;35512;56.312;101.728;2022-11-20T13:19:20;0.70;;;0.70;;
45128;SDS011;35512;56.312;101.728;2022-11-20T13:21:50;0.70;;;0.70;;
45128;SDS011;35512;56.312;101.728;2022-11-20T13:29:28;0.70;;;0.70;;
45128;SDS011;35512;56.312;101.728;2022-11-20T13:32:02;0.70;;;0.70;;
45128;SDS011;35512;56.312;101.728;2022-11-20T13:34:53;0.70;;;0.70;;
45128;SDS011;35512;56.312;101.728;2022-11-20T13:37:36;0.70;;;0.70;;
45128;SDS011;35512;56.312;101.728;2022-11-20T13:42:45;0.70;;;0.70;;
45128;SDS011;35512;56.312;101.728;2022-11-20T13:45:32;0.70;;;0.70;;
45128;SDS011;35512;56.312;101.728;2022-11-20T13:48:18;0.70;;;0.70;;
45128;SDS011;35512;56.312;101.728;2022-11-20T13:50:58;0.70;;;0.70;;
45128;SDS011;35512;56.312;101.728;2022-11-20T14:02:29;0.70;;;0.70;;
45128;SDS011;35512;56.312;101.728;2022-11-20T14:05:02;0.70;;;0.70;;
45128;SDS011;35512;56.312;101.728;2022-11-20T14:07:41;0.80;;;0.80;;
45128;SDS011;35512;56.312;101.728;2022-11-20T14:10:23;0.70;;;0.70;;
45128;SDS011;35512;56.312;101.728;2022-11-20T14:13:09;0.70;;;0.70;;
45128;SDS011;35512;56.312;101.728;2022-11-20T14:15:39;0.70;;;0.70;;
45128;SDS011;35512;56.312;101.728;2022-11-20T14:18:15;0.70;;;0.70;;
45128;SDS011;35512;56.312;101.728;2022-11-20T14:20:51;0.70;;;0.70;;
45128;SDS011;35512;56.312;101.728;2022-11-20T14:23:26;0.70;;;0.70;;
45128;SDS011;35512;56.312;101.728;2022-11-20T14:25:57;0.70;;;0.70;;
45128;SDS011;35512;56.312;101.728;2022-11-20T14:28:27;0.70;;;0.70;;
45128;SDS011;35512;56.312;101.728;2022-11-20T14:30:58;0.70;;;0.70;;
45128;SDS011;35512;56.312;101.728;2022-11-20T14:33:37;0.70;;;0.70;;
45128;SDS011;35512;56.312;101.728;2022-11-20T14:36:15;0.70;;;0.70;;
45128;SDS011;35512;56.312;101.728;2022-11-20T14:38:48;0.70;;;0.70;;
45128;SDS011;35512;56.312;101.728;2022-11-20T14:41:21;0.70;;;0.70;;
45128;SDS011;35512;56.312;101.728;2022-11-20T14:43:58;0.70;;;0.70;;
45128;SDS011;35512;56.312;101.728;2022-11-20T14:46:28;0.70;;;0.70;;
45128;SDS011;35512;56.312;101.728;2022-11-20T14:49:00;0.70;;;0.70;;
45128;SDS011;35512;56.312;101.728;2022-11-20T14:51:36;0.70;;;0.70;;
45128;SDS011;35512;56.312;101.728;2022-11-20T14:54:20;0.70;;;0.70;;
45128;SDS011;35512;56.312;101.728;2022-11-20T14:56:56;0.70;;;0.70;;
45128;SDS011;35512;56.312;101.728;2022-11-20T14:59:33;0.70;;;0.70;;
45128;SDS011;35512;56.312;101.728;2022-11-20T15:02:06;0.70;;;0.70;;
45128;SDS011;35512;56.312;101.728;2022-11-20T15:04:49;0.70;;;0.70;;
45128;SDS011;35512;56.312;101.728;2022-11-20T15:07:26;0.80;;;0.80;;
45128;SDS011;35512;56.312;101.728;2022-11-20T15:10:04;0.70;;;0.70;;
45128;SDS011;35512;56.312;101.728;2022-11-20T15:13:00;0.70;;;0.70;;
45128;SDS011;35512;56.312;101.728;2022-11-20T15:15:43;0.70;;;0.70;;
45128;SDS011;35512;56.312;101.728;2022-11-20T15:20:53;0.70;;;0.70;;
45128;SDS011;35512;56.312;101.728;2022-11-20T15:23:24;0.70;;;0.70;;
45128;SDS011;35512;56.312;101.728;2022-11-20T15:25:55;0.70;;;0.70;;
45128;SDS011;35512;56.312;101.728;2022-11-20T15:31:01;0.70;;;0.70;;
45128;SDS011;35512;56.312;101.728;2022-11-20T15:33:32;0.70;;;0.70;;
45128;SDS011;35512;56.312;101.728;2022-11-20T15:36:02;0.70;;;0.70;;
45128;SDS011;35512;56.312;101.728;2022-11-20T15:38:32;0.70;;;0.70;;
45128;SDS011;35512;56.312;101.728;2022-11-20T15:41:00;0.70;;;0.70;;
45128;SDS011;35512;56.312;101.728;2022-11-20T15:43:29;0.70;;;0.70;;
45128;SDS011;35512;56.312;101.728;2022-11-20T15:46:02;0.70;;;0.70;;
45128;SDS011;35512;56.312;101.728;2022-11-20T15:48:39;0.80;;;0.80;;
45128;SDS011;35512;56.312;101.728;2022-11-20T15:51:21;0.70;;;0.70;;
45128;SDS011;35512;56.312;101.728;2022-11-20T15:53:55;0.70;;;0.70;;
45128;SDS011;35512;56.312;101.728;2022-11-20T15:56:25;0.70;;;0.70;;
45128;SDS011;35512;56.312;101.728;2022-11-20T15:58:54;0.70;;;0.70;;
45128;SDS011;35512;56.312;101.728;2022-11-20T16:01:24;0.70;;;0.70;;
45128;SDS011;35512;56.312;101.728;2022-11-20T16:03:54;0.70;;;0.70;;
45128;SDS011;35512;56.312;101.728;2022-11-20T16:06:23;0.73;;;0.73;;
45128;SDS011;35512;56.312;101.728;2022-11-20T16:08:52;0.70;;;0.70;;
45128;SDS011;35512;56.312;101.728;2022-11-20T16:11:21;0.70;;;0.70;;
45128;SDS011;35512;56.312;101.728;2022-11-20T16:13:50;0.70;;;0.70;;
45128;SDS011;35512;56.312;101.728;2022-11-20T16:16:37;0.70;;;0.70;;
45128;SDS011;35512;56.312;101.728;2022-11-20T16:19:12;0.70;;;0.70;;
45128;SDS011;35512;56.312;101.728;2022-11-20T16:21:41;0.70;;;0.70;;
45128;SDS011;35512;56.312;101.728;2022-11-20T16:24:12;0.70;;;0.70;;
45128;SDS011;35512;56.312;101.728;2022-11-20T16:26:41;0.70;;;0.70;;
45128;SDS011;35512;56.312;101.728;2022-11-20T16:29:11;0.70;;;0.70;;
45128;SDS011;35512;56.312;101.728;2022-11-20T16:31:40;0.80;;;0.80;;
45128;SDS011;35512;56.312;101.728;2022-11-20T16:34:09;0.70;;;0.70;;
45128;SDS011;35512;56.312;101.728;2022-11-20T16:36:39;0.70;;;0.70;;
45128;SDS011;35512;56.312;101.728;2022-11-20T16:39:10;0.70;;;0.70;;
45128;SDS011;35512;56.312;101.728;2022-11-20T16:41:39;0.70;;;0.70;;